createdAt,value
2023-03-03T00:01:06.328Z,30.17
2023-03-03T00:03:33.479Z,30.30
2023-03-03T00:06:00.681Z,27.88
2023-03-03T00:08:27.703Z,27.95
2023-03-03T00:10:55.475Z,29.98
2023-03-03T00:13:24.273Z,26.10
2023-03-03T00:15:51.764Z,27.13
2023-03-03T00:18:22.842Z,23.60
2023-03-03T00:20:58.061Z,27.33
2023-03-03T00:23:38.293Z,25.95
2023-03-03T00:26:21.480Z,20.80
2023-03-03T00:28:49.742Z,23.40
2023-03-03T00:31:29.997Z,25.63
2023-03-03T00:33:57.709Z,25.40
2023-03-03T00:36:35.825Z,21.98
2023-03-03T00:39:22.846Z,20.70
2023-03-03T00:41:49.902Z,20.05
2023-03-03T00:44:30.843Z,19.38
2023-03-03T00:46:58.289Z,20.38
2023-03-03T00:49:27.277Z,24.75
2023-03-03T00:51:54.756Z,21.30
2023-03-03T00:54:21.801Z,21.80
2023-03-03T00:56:48.816Z,18.88
2023-03-03T00:59:15.925Z,19.48
2023-03-03T01:01:43.001Z,16.60
2023-03-03T01:04:10.127Z,20.40
2023-03-03T01:06:37.145Z,18.20
2023-03-03T01:09:04.162Z,19.58
2023-03-03T01:11:31.206Z,17.42
2023-03-03T01:13:58.398Z,20.88
2023-03-03T01:16:25.507Z,17.88
2023-03-03T01:18:52.571Z,19.83
2023-03-03T01:21:19.723Z,20.27
2023-03-03T01:23:46.799Z,18.52
2023-03-03T01:26:13.945Z,18.98
2023-03-03T01:28:40.971Z,20.48
2023-03-03T01:31:08.242Z,18.80
2023-03-03T01:33:36.312Z,21.85
2023-03-03T01:36:03.706Z,19.40
2023-03-03T01:38:31.090Z,18.20
2023-03-03T01:40:59.114Z,20.35
2023-03-03T01:43:31.153Z,18.40
2023-03-03T01:45:58.436Z,17.98
2023-03-03T01:48:25.969Z,16.10
2023-03-03T01:50:57.932Z,17.67
2023-03-03T01:53:41.911Z,18.42
2023-03-03T01:56:10.079Z,20.33
2023-03-03T01:58:42.553Z,16.25
2023-03-03T02:01:21.158Z,17.33
2023-03-03T02:03:49.422Z,17.92
2023-03-03T02:06:19.296Z,17.77
2023-03-03T02:08:52.201Z,18.23
2023-03-03T02:11:20.017Z,16.10
2023-03-03T02:13:47.399Z,16.60
2023-03-03T02:16:14.520Z,17.15
2023-03-03T02:18:46.741Z,17.27
2023-03-03T02:21:16.223Z,22.70
2023-03-03T02:23:53.802Z,19.65
2023-03-03T02:26:28.854Z,17.77
2023-03-03T02:28:56.248Z,15.35
2023-03-03T02:31:25.274Z,17.20
2023-03-03T02:33:53.172Z,16.33
2023-03-03T02:36:22.062Z,16.55
2023-03-03T02:39:04.477Z,14.52
2023-03-03T02:41:31.545Z,16.77
2023-03-03T02:44:04.274Z,23.15
2023-03-03T02:46:34.483Z,14.88
2023-03-03T02:49:02.105Z,16.08
2023-03-03T02:51:29.360Z,15.10
2023-03-03T02:53:56.754Z,17.20
2023-03-03T02:56:23.956Z,15.40
2023-03-03T02:58:51.081Z,15.55
2023-03-03T03:01:18.301Z,14.75
2023-03-03T03:03:45.444Z,15.05
2023-03-03T03:06:12.811Z,16.33
2023-03-03T03:08:40.036Z,16.00
2023-03-03T03:11:16.006Z,15.35
2023-03-03T03:13:47.939Z,15.93
2023-03-03T03:16:15.038Z,16.83
2023-03-03T03:18:42.093Z,15.75
2023-03-03T03:21:10.502Z,16.58
2023-03-03T03:23:37.763Z,14.40
2023-03-03T03:26:05.137Z,13.32
2023-03-03T03:28:32.239Z,14.48
2023-03-03T03:30:59.584Z,14.63
2023-03-03T03:33:28.271Z,12.65
2023-03-03T03:35:55.628Z,14.00
2023-03-03T03:38:23.524Z,14.07
2023-03-03T03:40:51.055Z,16.08
2023-03-03T03:43:18.142Z,15.00
2023-03-03T03:45:45.606Z,14.10
2023-03-03T03:48:12.722Z,12.80
2023-03-03T03:50:41.842Z,13.15
2023-03-03T03:53:09.201Z,14.40
2023-03-03T03:55:36.351Z,14.18
2023-03-03T03:58:03.411Z,17.30
2023-03-03T04:00:31.134Z,15.25
2023-03-03T04:02:58.464Z,13.43
2023-03-03T04:05:25.584Z,14.02
2023-03-03T04:07:52.609Z,15.07
2023-03-03T04:10:19.712Z,13.70
2023-03-03T04:12:46.760Z,14.32
2023-03-03T04:15:15.186Z,14.85
2023-03-03T04:17:42.513Z,13.50
2023-03-03T04:20:11.363Z,12.27
2023-03-03T04:22:38.376Z,15.98
2023-03-03T04:25:05.643Z,15.35
2023-03-03T04:27:33.310Z,13.40
2023-03-03T04:30:00.520Z,16.98
2023-03-03T04:32:27.631Z,16.33
2023-03-03T04:35:05.660Z,14.25
2023-03-03T04:37:34.613Z,12.90
2023-03-03T04:40:01.826Z,13.65
2023-03-03T04:42:28.923Z,14.65
2023-03-03T04:44:56.121Z,13.02
2023-03-03T04:47:23.308Z,13.60
2023-03-03T04:49:50.336Z,13.88
2023-03-03T04:52:17.413Z,14.80
2023-03-03T04:54:44.876Z,15.38
2023-03-03T04:57:12.037Z,13.45
2023-03-03T04:59:39.110Z,14.20
2023-03-03T05:02:08.332Z,15.68
2023-03-03T05:04:35.440Z,12.00
2023-03-03T05:07:02.605Z,16.05
2023-03-03T05:09:29.652Z,12.93
2023-03-03T05:12:00.113Z,12.40
2023-03-03T05:14:27.395Z,14.80
2023-03-03T05:16:54.710Z,13.93
2023-03-03T05:19:21.754Z,14.52
2023-03-03T05:21:48.928Z,13.38
2023-03-03T05:24:16.212Z,12.75
2023-03-03T05:26:43.279Z,14.95
2023-03-03T05:29:10.405Z,16.35
2023-03-03T05:31:37.535Z,15.52
2023-03-03T05:34:04.640Z,11.73
2023-03-03T05:36:31.683Z,13.45
2023-03-03T05:38:58.763Z,14.10
2023-03-03T05:41:25.886Z,15.38
2023-03-03T05:43:53.004Z,14.40
2023-03-03T05:46:20.047Z,12.70
2023-03-03T05:48:47.158Z,17.17
2023-03-03T05:51:15.509Z,14.20
2023-03-03T05:53:43.117Z,13.38
2023-03-03T05:56:10.234Z,17.35
2023-03-03T05:58:37.390Z,25.67
2023-03-03T06:01:04.466Z,14.55
2023-03-03T06:03:31.798Z,16.95
2023-03-03T06:05:58.938Z,20.63
2023-03-03T06:08:26.048Z,17.20
2023-03-03T06:10:53.163Z,17.48
2023-03-03T06:13:20.159Z,13.75
2023-03-03T06:15:47.540Z,15.50
2023-03-03T06:18:14.706Z,20.60
2023-03-03T06:20:41.724Z,19.10
2023-03-03T06:23:09.933Z,30.58
2023-03-03T06:25:37.255Z,22.42
2023-03-03T06:28:04.293Z,17.50
2023-03-03T06:30:31.432Z,103.35
2023-03-03T06:32:58.656Z,60.65
2023-03-03T06:35:25.788Z,49.35
2023-03-03T06:37:52.903Z,35.92
2023-03-03T06:40:20.038Z,22.02
2023-03-03T06:42:47.056Z,17.33
2023-03-03T06:45:14.555Z,21.38
2023-03-03T06:47:42.332Z,20.60
2023-03-03T06:50:10.906Z,18.70
2023-03-03T06:52:37.937Z,28.13
2023-03-03T06:55:12.063Z,25.50
2023-03-03T06:57:39.537Z,22.70
2023-03-03T07:00:20.791Z,19.92
2023-03-03T07:02:48.771Z,21.83
2023-03-03T07:05:17.049Z,20.50
2023-03-03T07:07:44.559Z,21.83
2023-03-03T07:10:21.531Z,21.13
2023-03-03T07:12:48.583Z,21.63
2023-03-03T07:15:17.057Z,19.60
2023-03-03T07:17:45.930Z,20.20
2023-03-03T07:20:19.276Z,21.00
2023-03-03T07:22:46.781Z,21.60
2023-03-03T07:25:20.463Z,19.52
2023-03-03T07:27:47.602Z,19.85
2023-03-03T07:30:28.043Z,28.85
2023-03-03T07:32:57.345Z,27.42
2023-03-03T07:35:39.238Z,23.33
2023-03-03T07:38:15.401Z,24.65
2023-03-03T07:40:46.188Z,32.95
2023-03-03T07:43:31.951Z,29.90
2023-03-03T07:46:11.185Z,29.77
2023-03-03T07:48:40.975Z,28.58
2023-03-03T07:51:35.409Z,31.10
2023-03-03T07:54:22.702Z,27.33
2023-03-03T07:56:49.734Z,31.67
2023-03-03T07:59:22.340Z,26.60
2023-03-03T08:02:01.477Z,36.95
2023-03-03T08:04:31.790Z,27.38
2023-03-03T08:07:00.305Z,36.10
2023-03-03T08:09:37.857Z,34.33
2023-03-03T08:12:07.870Z,32.97
2023-03-03T08:14:35.829Z,37.00
2023-03-03T08:17:03.328Z,33.03
2023-03-03T08:19:32.023Z,32.42
2023-03-03T08:22:10.025Z,29.58
2023-03-03T08:24:38.585Z,34.85
2023-03-03T08:27:05.703Z,30.25
2023-03-03T08:29:32.748Z,33.92
2023-03-03T08:31:59.943Z,34.00
2023-03-03T08:34:27.045Z,38.38
2023-03-03T08:36:54.224Z,34.80
2023-03-03T08:39:21.310Z,31.98
2023-03-03T08:41:48.327Z,31.65
2023-03-03T08:44:16.458Z,34.72
2023-03-03T08:46:44.151Z,32.60
2023-03-03T08:49:11.462Z,31.08
2023-03-03T08:51:38.512Z,32.28
2023-03-03T08:54:05.564Z,33.20
2023-03-03T08:56:32.567Z,29.58
2023-03-03T08:59:02.996Z,30.10
2023-03-03T09:01:31.360Z,34.28
2023-03-03T09:03:58.795Z,32.90
2023-03-03T09:06:25.890Z,36.58
2023-03-03T09:08:54.766Z,37.08
2023-03-03T09:11:27.468Z,33.78
2023-03-03T09:14:13.977Z,39.70
2023-03-03T09:16:42.719Z,34.90
2023-03-03T09:19:24.982Z,33.85
2023-03-03T09:21:54.685Z,33.83
2023-03-03T09:24:29.468Z,35.78
2023-03-03T09:26:58.832Z,36.45
2023-03-03T09:29:29.029Z,33.00
2023-03-03T09:31:58.990Z,38.83
2023-03-03T09:34:35.388Z,37.58
2023-03-03T09:37:02.965Z,37.95
2023-03-03T09:39:31.394Z,39.10
2023-03-03T09:42:15.784Z,32.95
2023-03-03T09:45:01.266Z,36.30
2023-03-03T09:47:31.319Z,37.33
2023-03-03T09:50:13.366Z,38.60
2023-03-03T09:52:40.350Z,34.20
2023-03-03T09:55:20.882Z,32.80
2023-03-03T09:58:11.283Z,35.47
2023-03-03T10:00:56.123Z,36.08
2023-03-03T10:03:38.467Z,34.92
2023-03-03T10:06:12.197Z,40.08
2023-03-03T10:08:42.420Z,34.80
2023-03-03T10:11:16.473Z,33.35
2023-03-03T10:13:53.905Z,33.25
2023-03-03T10:16:32.355Z,33.47
2023-03-03T10:19:02.484Z,34.42
2023-03-03T10:21:29.480Z,41.22
2023-03-03T10:24:00.912Z,39.25
2023-03-03T10:26:45.562Z,32.38
2023-03-03T10:29:22.187Z,33.13
2023-03-03T10:31:58.783Z,30.00
2023-03-03T10:34:32.397Z,32.28
2023-03-03T10:37:18.139Z,33.60
2023-03-03T10:39:51.392Z,34.70
2023-03-03T10:42:20.953Z,33.80
2023-03-03T10:44:54.276Z,32.95
2023-03-03T10:47:48.528Z,33.35
2023-03-03T10:50:28.399Z,32.47
2023-03-03T10:53:33.086Z,28.58
2023-03-03T10:56:11.073Z,32.47
2023-03-03T10:58:53.588Z,31.45
2023-03-03T11:01:37.088Z,30.10
2023-03-03T11:04:14.147Z,33.88
2023-03-03T11:06:50.273Z,27.13
2023-03-03T11:09:41.081Z,29.92
2023-03-03T11:12:08.940Z,29.45
2023-03-03T11:14:49.037Z,30.67
2023-03-03T11:17:21.494Z,32.58
2023-03-03T11:20:04.874Z,29.27
2023-03-03T11:22:33.384Z,26.87
2023-03-03T11:25:01.180Z,33.07
2023-03-03T11:27:29.506Z,32.20
2023-03-03T11:29:59.651Z,29.00
2023-03-03T11:32:46.669Z,31.10
2023-03-03T11:35:16.698Z,32.33
2023-03-03T11:38:02.799Z,38.10
2023-03-03T11:40:42.199Z,31.70
2023-03-03T11:43:35.983Z,33.97
2023-03-03T11:46:09.734Z,29.70
2023-03-03T11:48:40.360Z,33.10
2023-03-03T11:51:15.344Z,28.27
2023-03-03T11:53:50.911Z,30.73
2023-03-03T11:56:18.092Z,28.60
2023-03-03T11:59:04.234Z,30.67
2023-03-03T12:01:31.291Z,31.00
2023-03-03T12:04:03.811Z,28.73
2023-03-03T12:06:34.196Z,27.37
2023-03-03T12:09:18.652Z,32.10
2023-03-03T12:11:57.861Z,28.27
2023-03-03T12:14:31.075Z,29.63
2023-03-03T12:17:07.578Z,28.23
2023-03-03T12:19:41.036Z,25.60
2023-03-03T12:22:29.605Z,30.57
2023-03-03T12:25:02.824Z,29.20
2023-03-03T12:27:36.327Z,31.00
2023-03-03T12:30:10.662Z,31.70
2023-03-03T12:32:58.490Z,31.83
2023-03-03T12:35:28.729Z,36.63
2023-03-03T12:37:55.914Z,28.90
2023-03-03T12:40:32.618Z,31.27
2023-03-03T12:43:18.892Z,29.50
2023-03-03T12:46:04.424Z,30.90
2023-03-03T12:48:45.335Z,28.53
2023-03-03T12:51:31.153Z,28.60
2023-03-03T12:54:17.217Z,28.90
2023-03-03T12:56:44.323Z,31.37
2023-03-03T12:59:18.223Z,26.40
2023-03-03T13:01:58.558Z,29.10
2023-03-03T13:04:44.528Z,28.43
2023-03-03T13:07:22.781Z,29.47
2023-03-03T13:09:53.535Z,29.83
2023-03-03T13:12:23.656Z,31.57
2023-03-03T13:14:56.682Z,31.30
2023-03-03T13:17:26.785Z,31.33
2023-03-03T13:19:56.961Z,30.53
2023-03-03T13:22:33.007Z,28.00
2023-03-03T13:25:20.513Z,31.43
2023-03-03T13:27:49.180Z,28.67
2023-03-03T13:30:18.196Z,26.33
2023-03-03T13:33:03.728Z,34.43
2023-03-03T13:35:30.953Z,31.17
2023-03-03T13:37:58.800Z,27.70
2023-03-03T13:40:37.815Z,28.00
2023-03-03T13:43:09.622Z,28.30
2023-03-03T13:45:36.895Z,28.07
2023-03-03T13:48:24.300Z,27.97
2023-03-03T13:50:57.744Z,25.90
2023-03-03T13:53:28.081Z,26.10
2023-03-03T13:56:01.284Z,29.33
2023-03-03T13:58:38.456Z,28.73
2023-03-03T14:01:15.224Z,29.07
2023-03-03T14:03:58.877Z,29.37
2023-03-03T14:06:30.023Z,31.27
2023-03-03T14:09:15.685Z,26.67
2023-03-03T14:12:12.641Z,29.30
2023-03-03T14:14:46.612Z,30.90
2023-03-03T14:17:22.417Z,26.93
2023-03-03T14:19:55.201Z,25.23
2023-03-03T14:22:40.596Z,25.93
2023-03-03T14:25:09.282Z,30.60
2023-03-03T14:28:02.824Z,32.30
2023-03-03T14:30:40.116Z,24.90
2023-03-03T14:33:10.323Z,30.63
2023-03-03T14:35:42.152Z,27.05
2023-03-03T14:38:09.260Z,26.53
2023-03-03T14:40:38.927Z,28.52
2023-03-03T14:43:29.190Z,35.28
2023-03-03T14:45:57.443Z,27.42
2023-03-03T14:48:26.058Z,34.92
2023-03-03T14:50:54.637Z,28.42
2023-03-03T15:42:11.864Z,75.93
2023-03-03T15:49:52.941Z,49.10
2023-03-03T15:52:50.880Z,47.43
2023-03-03T15:55:34.713Z,44.27
2023-03-03T15:58:29.033Z,53.13
2023-03-03T16:01:17.612Z,45.97
2023-03-03T16:03:58.003Z,48.00
2023-03-03T16:06:38.976Z,44.35
2023-03-03T16:09:25.708Z,48.88
2023-03-03T16:12:00.878Z,49.47
2023-03-03T16:14:45.699Z,48.92
2023-03-03T16:17:16.838Z,55.05
2023-03-03T16:20:02.536Z,43.83
2023-03-03T16:22:49.416Z,48.20
2023-03-03T16:25:33.818Z,46.85
2023-03-03T16:28:17.683Z,47.83
2023-03-03T16:30:58.266Z,51.13
2023-03-03T16:33:56.325Z,43.60
2023-03-03T16:36:35.374Z,42.63
2023-03-03T16:39:08.108Z,47.22
2023-03-03T16:41:47.250Z,53.58
2023-03-03T16:44:53.649Z,46.33
2023-03-03T16:48:21.844Z,52.55
2023-03-03T16:50:59.554Z,45.03
2023-03-03T16:53:50.571Z,48.72
2023-03-03T16:56:41.815Z,52.42
2023-03-03T16:59:19.096Z,57.80
2023-03-03T17:02:17.243Z,48.78
2023-03-03T17:05:10.694Z,55.63
2023-03-03T17:07:55.990Z,58.90
2023-03-03T17:10:45.933Z,56.83
2023-03-03T17:14:06.646Z,59.55
2023-03-03T17:16:57.045Z,64.47
2023-03-03T17:19:31.694Z,67.20
2023-03-03T17:22:30.865Z,57.78
2023-03-03T17:25:22.423Z,55.58
2023-03-03T17:28:02.324Z,72.55
2023-03-03T17:30:37.218Z,71.00
2023-03-03T17:33:47.485Z,60.15
2023-03-03T17:36:56.565Z,65.70
2023-03-03T17:39:29.292Z,63.38
2023-03-03T17:42:22.210Z,70.15
2023-03-03T17:45:27.308Z,66.45
2023-03-03T17:48:03.884Z,67.75
2023-03-03T17:51:05.549Z,70.03
2023-03-03T17:53:58.057Z,67.53
2023-03-03T17:56:57.155Z,69.68
2023-03-03T17:59:55.436Z,73.03
2023-03-03T18:03:04.378Z,68.78
2023-03-03T18:05:40.166Z,68.45
2023-03-03T18:08:25.245Z,74.68
2023-03-03T18:11:15.303Z,74.18
2023-03-03T18:14:07.017Z,69.05
2023-03-03T18:17:02.414Z,61.97
2023-03-03T18:20:07.324Z,62.75
2023-03-03T18:22:50.189Z,64.72
2023-03-03T18:25:26.854Z,68.72
2023-03-03T18:27:59.613Z,60.90
2023-03-03T18:30:29.122Z,75.53
2023-03-03T18:32:55.913Z,68.15
2023-03-03T18:35:38.390Z,71.68
2023-03-03T18:38:33.002Z,67.18
2023-03-03T18:41:00.811Z,72.53
2023-03-03T18:43:50.506Z,64.15
2023-03-03T18:46:20.049Z,74.53
2023-03-03T18:48:46.747Z,69.88
2023-03-03T18:51:39.374Z,66.78
2023-03-03T18:54:31.046Z,69.88
2023-03-03T18:56:58.229Z,58.95
2023-03-03T18:59:30.912Z,65.60
2023-03-03T19:02:12.898Z,64.50
2023-03-03T19:04:43.585Z,65.18
2023-03-03T19:07:34.404Z,64.28
2023-03-03T19:10:03.747Z,69.57
2023-03-03T19:12:51.740Z,63.45
2023-03-03T19:15:35.361Z,70.25
2023-03-03T19:18:27.702Z,60.35
2023-03-03T19:21:22.047Z,62.45
2023-03-03T19:24:02.919Z,64.55
2023-03-03T19:26:39.397Z,61.17
2023-03-03T19:29:41.651Z,65.22
2023-03-03T19:32:16.521Z,61.15
2023-03-03T19:35:01.314Z,73.30
2023-03-03T19:37:46.222Z,70.25
2023-03-03T19:40:45.377Z,60.03
2023-03-03T19:43:55.106Z,70.22
2023-03-03T19:46:40.922Z,61.38
2023-03-03T19:49:26.865Z,56.40
2023-03-03T19:51:57.732Z,67.57
2023-03-03T19:54:44.820Z,61.85
2023-03-03T19:57:34.322Z,53.67
2023-03-03T20:00:45.363Z,63.63
2023-03-03T20:03:59.661Z,59.55
2023-03-03T20:06:37.179Z,62.65
2023-03-03T20:09:14.823Z,53.58
2023-03-03T20:12:06.661Z,55.70
2023-03-03T20:15:00.333Z,66.13
2023-03-03T20:17:30.764Z,59.75
2023-03-03T20:20:30.676Z,56.80
2023-03-03T20:23:11.653Z,58.88
2023-03-03T20:25:48.556Z,61.83
2023-03-03T20:28:39.606Z,66.85
2023-03-03T20:31:34.110Z,59.47
2023-03-03T20:34:12.565Z,59.58
2023-03-03T20:37:23.300Z,50.75
2023-03-03T20:40:08.278Z,55.45
2023-03-03T20:43:00.459Z,54.05
2023-03-03T20:45:57.010Z,62.22
2023-03-03T20:48:32.942Z,58.55
2023-03-03T20:50:59.605Z,58.90
2023-03-03T20:53:46.740Z,59.60
2023-03-03T20:56:27.696Z,56.00
2023-03-03T20:59:01.500Z,59.10
2023-03-03T21:01:53.330Z,62.97
2023-03-03T21:04:31.180Z,57.65
2023-03-03T21:06:58.245Z,52.78
2023-03-03T21:09:39.029Z,61.17
2023-03-03T21:12:29.085Z,62.83
2023-03-03T21:15:08.021Z,52.67
2023-03-03T21:17:34.798Z,56.55
2023-03-03T21:20:24.688Z,49.33
2023-03-03T21:22:52.022Z,61.15
2023-03-03T21:25:41.809Z,59.17
2023-03-03T21:28:17.820Z,53.22
2023-03-03T21:31:24.916Z,55.45
2023-03-03T21:33:56.725Z,53.10
2023-03-03T21:36:36.807Z,52.75
2023-03-03T21:39:35.397Z,57.75
2023-03-03T21:42:06.799Z,57.25
2023-03-03T21:44:43.994Z,61.80
2023-03-03T21:47:16.017Z,61.03
2023-03-03T21:49:47.992Z,57.13
2023-03-03T21:52:16.763Z,59.72
2023-03-03T21:54:44.913Z,65.30
2023-03-03T21:57:13.867Z,64.63
2023-03-03T21:59:42.315Z,52.58
2023-03-03T22:02:09.976Z,53.35
2023-03-03T22:04:38.798Z,55.42
2023-03-03T22:07:05.767Z,62.67
2023-03-03T22:09:32.639Z,51.75
2023-03-03T22:11:59.364Z,60.78
2023-03-03T22:14:26.315Z,57.13
2023-03-03T22:16:53.042Z,54.85
2023-03-03T22:19:19.676Z,66.75
2023-03-03T22:21:46.749Z,67.40
2023-03-03T22:24:13.842Z,62.88
2023-03-03T22:26:40.439Z,69.43
2023-03-03T22:29:07.364Z,59.33
2023-03-03T22:31:34.129Z,57.53
2023-03-03T22:34:01.037Z,58.55
2023-03-03T22:36:27.702Z,60.40
2023-03-03T22:38:54.538Z,63.05
2023-03-03T22:41:21.235Z,63.78
2023-03-03T22:43:48.105Z,60.00
2023-03-03T22:46:15.125Z,62.95
2023-03-03T22:48:41.850Z,60.00
2023-03-03T22:51:08.908Z,62.75
2023-03-03T22:53:35.549Z,61.35
2023-03-03T22:56:02.248Z,60.47
2023-03-03T22:58:29.396Z,52.25
2023-03-03T23:00:56.141Z,58.33
2023-03-03T23:03:23.131Z,57.35
2023-03-03T23:05:51.799Z,61.05
2023-03-03T23:08:20.173Z,61.10
2023-03-03T23:10:47.474Z,55.65
2023-03-03T23:13:14.508Z,58.85
2023-03-03T23:15:41.180Z,61.97
2023-03-03T23:18:10.905Z,58.58
2023-03-03T23:20:37.566Z,58.55
2023-03-03T23:23:04.674Z,62.60
2023-03-03T23:25:31.519Z,64.28
2023-03-03T23:27:58.804Z,61.72
2023-03-03T23:30:25.623Z,57.28
2023-03-03T23:32:52.594Z,58.80
2023-03-03T23:35:19.958Z,72.70
2023-03-03T23:37:46.703Z,62.17
2023-03-03T23:40:15.185Z,60.53
2023-03-03T23:42:42.032Z,62.55
2023-03-03T23:45:10.257Z,57.78
2023-03-03T23:47:37.249Z,59.88
2023-03-03T23:50:04.661Z,65.78
2023-03-03T23:52:31.279Z,60.25
2023-03-03T23:54:57.927Z,66.10
2023-03-03T23:57:24.988Z,59.78
2023-03-03T23:59:51.641Z,61.13
